Aérodrome :
LOGIN :

S'inscrire | Disclaimer

   EN    FR    IT 

 










Légende :    VFR   VFR Marginal   IFR   IFR Intensif   IFR Très Intensif
Visi : 
Plafond : 
>= 8 km
>= 3000ft
5 à 8 km
1000 à 3000 ft
1500m à 5 km
500 à 1000 ft
800 à 1500m
200 à 500 ft
< 800m
< 200 ft
Symboles :   Orages  Brouillard  Fortes neiges  Fortes précipitations  Vent > 20 kt
SIGMETs :   Divers  Orages  Givrage  Turbulence  Onde Orograph.  Cendres Volcan.







- Altitude de l'aérodrome : 290 ft
- Code IATA : LAI
- Voir les cartes d'approche


LFRO - Lannion

DERNIER METAR :
  • 151130Z AUTO 33016G28KT 290V360 9999 SCT033 SCT039 09/02 Q1004 TEMPO 4000 SHRA BKN018TCU

METARs EXPIRÉS :
  • 151100Z AUTO 33015KT 9999 BKN031 09/03 Q1004 TEMPO 30020G35KT 4000 SHRA BKN020TCU
  • 151030Z AUTO 32016G26KT 9999 BKN028/// BKN035/// BKN042/// ///TCU 09/04 Q1003 TEMPO 4000 SHRA BKN018CB BECMG 28013KT
  • 151000Z AUTO 31016G26KT 280V340 9999 4000 SCT025 BKN031 BKN042 09/04 Q1003 TEMPO 4000 TSGR BKN018CB
  • 150930Z AUTO 31017G29KT 9999 SCT030 BKN036 BKN046 09/03 Q1002 TEMPO 4000 TSGR BKN018CB
  • 150900Z AUTO 31019KT 9999 SCT028 BKN035 BKN042 09/03 Q1001 TEMPO 30020G35KT 4000 TSGR BKN018CB

TAF TAF LFRO
Valide du 15 à 12h jusqu'au 16 à 12h UTC


151100Z 1512/1612 31019KT 9999 SCT030 BKN036 BKN046
TEMPO 1512/1518 32017G29KT 4000 SHRA BKN018TCU
BECMG 1520/1522 36011KT
Pas de NOTAMs connus pour ce terrain.



MET'MAP, la Météo Aéronautique d'un coup d'oeil ! - Copyright ORBIFLY Décembre 2007 - Disclaimer

ORBIFLY MET'MAP TEAM :

Programmation & Développement : Alexandra Zaïnal
Conception & Développement : Baudouin d'Aumeries
Co-Programmation & Développement : Marc-Olivier Méhu
Soutien technique & logistique : Manuel Goepfert

Contact : metmap@orbifly.com




SOURCES & CREDITS :

   NOAA